Time;durP1;ratioP1;P1;durP2;ratioP2;P2;SDS_P1;SDS_P2;PMS_P1;PMS_P2;Temp;Humidity;BMP_temperature;BMP_pressure;BME280_temperature;BME280_humidity;BME280_pressure;Samples;Min_cycle;Max_cycle;Signal;HPM_P1;HPM_P2
2021/05/27 00:01:50;;;;;;;20.17;8.75;;;10.20;99.90;;;;;;6148750;23;20092;-77
2021/05/27 00:04:17;;;;;;;16.80;7.22;;;10.20;99.90;;;;;;6149121;23;20017;-77
2021/05/27 00:06:44;;;;;;;23.77;8.30;;;10.20;99.90;;;;;;6143164;23;20021;-76
2021/05/27 00:09:11;;;;;;;29.73;9.43;;;10.20;99.90;;;;;;6146199;23;20058;-77
2021/05/27 00:11:38;;;;;;;27.90;8.75;;;10.20;99.90;;;;;;6145008;23;20109;-77
2021/05/27 00:14:05;;;;;;;27.98;8.30;;;10.20;99.90;;;;;;6146008;23;20100;-77
2021/05/27 00:16:31;;;;;;;19.80;9.05;;;10.20;99.90;;;;;;6145185;23;20024;-77
2021/05/27 00:18:58;;;;;;;27.50;10.00;;;10.20;99.90;;;;;;6169018;23;20105;-78
2021/05/27 00:21:25;;;;;;;35.50;10.05;;;10.20;99.90;;;;;;6170346;23;20142;-78
2021/05/27 00:23:52;;;;;;;20.80;8.90;;;10.20;99.90;;;;;;6170619;23;20017;-77
2021/05/27 00:26:19;;;;;;;28.92;10.02;;;10.20;99.90;;;;;;6165790;23;20021;-77
2021/05/27 00:28:45;;;;;;;31.83;9.82;;;10.20;99.90;;;;;;6147053;23;20032;-77
2021/05/27 00:31:12;;;;;;;24.83;8.57;;;10.10;99.90;;;;;;6146361;23;20025;-77
2021/05/27 00:33:39;;;;;;;29.50;9.27;;;10.20;99.90;;;;;;6145082;23;20989;-76
2021/05/27 00:36:06;;;;;;;26.08;9.75;;;10.20;99.90;;;;;;6146578;23;20025;-77
2021/05/27 00:38:33;;;;;;;20.40;9.52;;;10.20;99.90;;;;;;6148625;23;20050;-77
2021/05/27 00:40:59;;;;;;;29.27;10.50;;;10.20;99.90;;;;;;6145711;23;20014;-77
2021/05/27 00:43:26;;;;;;;27.63;9.93;;;10.10;99.90;;;;;;6171672;23;21900;-77
2021/05/27 00:45:53;;;;;;;21.20;9.52;;;10.20;99.90;;;;;;6145327;23;20128;-77
2021/05/27 00:51:05;;;;;;;19.50;8.02;;;10.20;99.90;;;;;;6145505;23;20018;-77
2021/05/27 00:53:32;;;;;;;26.17;7.90;;;10.20;99.90;;;;;;6145234;23;20025;-77
2021/05/27 00:55:59;;;;;;;19.83;7.75;;;10.10;99.90;;;;;;6145476;23;20025;-77
2021/05/27 00:58:27;;;;;;;16.83;6.63;;;10.20;99.90;;;;;;6147213;23;20026;-78
2021/05/27 01:00:54;;;;;;;23.27;6.95;;;10.20;99.90;;;;;;6148241;23;20018;-78
2021/05/27 01:03:20;;;;;;;17.60;6.22;;;10.10;99.90;;;;;;6145235;23;20319;-78
2021/05/27 01:05:47;;;;;;;16.05;5.45;;;10.10;99.90;;;;;;6169222;23;20025;-77
2021/05/27 01:08:15;;;;;;;24.40;6.43;;;10.10;99.90;;;;;;6171798;23;20526;-77
2021/05/27 01:10:41;;;;;;;16.42;5.38;;;10.10;99.90;;;;;;6149953;23;20018;-77
2021/05/27 01:13:08;;;;;;;14.65;6.50;;;10.10;99.90;;;;;;6174063;23;20039;-78
2021/05/27 01:15:35;;;;;;;17.85;5.75;;;10.10;99.90;;;;;;6173073;23;20600;-77
2021/05/27 01:18:13;;;;;;;17.90;6.40;;;10.10;99.90;;;;;;6173096;23;20350;-77
2021/05/27 01:20:44;;;;;;;16.58;6.65;;;10.00;99.90;;;;;;6147154;23;20014;-78
2021/05/27 01:23:11;;;;;;;10.38;5.63;;;10.00;99.90;;;;;;6149876;23;20025;-78
2021/05/27 01:25:38;;;;;;;15.98;6.63;;;10.10;99.90;;;;;;6150311;23;20092;-77
2021/05/27 01:28:05;;;;;;;14.40;5.35;;;10.10;99.90;;;;;;6149574;23;20445;-77
2021/05/27 01:30:32;;;;;;;13.93;5.68;;;10.00;99.90;;;;;;6172446;23;20029;-78
2021/05/27 01:32:58;;;;;;;13.43;6.10;;;10.00;99.90;;;;;;6147123;23;20096;-77
2021/05/27 01:35:26;;;;;;;12.88;5.45;;;10.00;99.90;;;;;;6148534;23;20029;-77
2021/05/27 01:37:54;;;;;;;11.65;5.25;;;10.00;99.90;;;;;;6172256;23;20018;-77
2021/05/27 01:40:23;;;;;;;26.67;6.68;;;10.00;99.90;;;;;;6147121;23;20025;-78
2021/05/27 01:42:53;;;;;;;16.33;6.43;;;10.00;99.90;;;;;;6145833;23;20116;-77
2021/05/27 01:45:20;;;;;;;19.27;5.90;;;10.00;99.90;;;;;;6144582;23;20464;-78
2021/05/27 01:47:46;;;;;;;21.35;6.70;;;10.10;99.90;;;;;;6148255;23;20081;-78
2021/05/27 01:50:20;;;;;;;13.80;6.03;;;10.00;99.90;;;;;;6149015;23;20021;-78
2021/05/27 01:52:48;;;;;;;23.65;8.25;;;10.00;99.90;;;;;;6146747;23;20080;-77
2021/05/27 01:55:15;;;;;;;18.10;6.20;;;10.00;99.90;;;;;;6146524;23;20021;-77
2021/05/27 01:57:42;;;;;;;23.23;5.90;;;10.00;99.90;;;;;;6149168;23;20027;-78
2021/05/27 02:00:10;;;;;;;21.65;6.38;;;10.00;99.90;;;;;;6148852;23;20039;-77
2021/05/27 02:02:36;;;;;;;20.02;6.30;;;10.00;99.90;;;;;;6150241;23;20056;-78
2021/05/27 02:05:04;;;;;;;11.32;5.20;;;10.00;99.90;;;;;;6148278;23;20116;-78
2021/05/27 02:07:30;;;;;;;15.27;5.88;;;10.00;99.90;;;;;;6147047;23;20018;-77
2021/05/27 02:09:57;;;;;;;17.83;5.65;;;10.00;99.90;;;;;;6146116;23;20101;-78
2021/05/27 02:12:24;;;;;;;18.33;5.80;;;10.00;99.90;;;;;;6148543;23;20025;-78
2021/05/27 02:14:50;;;;;;;22.42;7.63;;;10.00;99.90;;;;;;6150376;23;20097;-77
2021/05/27 02:17:17;;;;;;;16.25;5.65;;;10.00;99.90;;;;;;6149384;23;20021;-78
2021/05/27 02:19:44;;;;;;;22.67;6.38;;;10.00;99.90;;;;;;6149685;23;20036;-78
2021/05/27 02:22:11;;;;;;;17.45;6.18;;;10.00;99.90;;;;;;6149045;23;20040;-77
2021/05/27 02:24:37;;;;;;;15.30;5.72;;;10.00;99.90;;;;;;6172275;23;21180;-77
2021/05/27 02:27:04;;;;;;;20.08;5.88;;;10.00;99.90;;;;;;6146134;23;20022;-77
2021/05/27 02:29:31;;;;;;;14.75;5.57;;;10.00;99.90;;;;;;6146602;23;20021;-77
2021/05/27 02:31:57;;;;;;;16.90;5.18;;;10.00;99.90;;;;;;6145487;23;20014;-79
2021/05/27 02:34:24;;;;;;;18.17;5.75;;;10.00;99.90;;;;;;6172702;23;20017;-77
2021/05/27 02:36:51;;;;;;;22.52;6.28;;;10.00;99.90;;;;;;6148335;23;20020;-77
2021/05/27 02:39:18;;;;;;;19.83;6.55;;;10.00;99.90;;;;;;6146991;23;20167;-78
2021/05/27 02:41:45;;;;;;;16.55;6.30;;;9.90;99.90;;;;;;6147859;23;20020;-78
2021/05/27 02:44:12;;;;;;;18.38;6.38;;;10.00;99.90;;;;;;6149658;23;20026;-78
2021/05/27 02:46:39;;;;;;;24.80;5.78;;;10.00;99.90;;;;;;6147466;23;20020;-77
2021/05/27 02:49:06;;;;;;;20.95;6.78;;;9.90;99.90;;;;;;6149365;23;20529;-77
2021/05/27 02:51:33;;;;;;;19.45;5.80;;;9.90;99.90;;;;;;6146417;23;20013;-77
2021/05/27 02:54:00;;;;;;;17.50;6.75;;;9.90;99.90;;;;;;6149461;23;20364;-78
2021/05/27 02:56:27;;;;;;;15.18;5.70;;;9.90;99.90;;;;;;6147981;23;20040;-77
2021/05/27 02:58:54;;;;;;;18.20;5.75;;;10.00;99.90;;;;;;6148514;23;20036;-76
2021/05/27 03:01:21;;;;;;;16.30;5.50;;;10.00;99.90;;;;;;6148934;23;20100;-77
2021/05/27 03:03:47;;;;;;;11.73;5.65;;;10.00;99.90;;;;;;6144912;23;20092;-77
2021/05/27 03:06:14;;;;;;;25.75;6.60;;;10.00;99.90;;;;;;6169633;23;20018;-77
2021/05/27 03:08:41;;;;;;;14.07;6.07;;;10.00;99.90;;;;;;6149404;23;20088;-78
2021/05/27 03:11:09;;;;;;;19.88;6.05;;;10.00;99.90;;;;;;6136446;23;20021;-77
2021/05/27 03:13:36;;;;;;;21.80;6.53;;;10.00;99.90;;;;;;6150033;23;21178;-77
2021/05/27 03:16:03;;;;;;;21.52;5.50;;;10.00;99.90;;;;;;6171195;23;20018;-77
2021/05/27 03:18:30;;;;;;;20.30;6.28;;;10.00;99.90;;;;;;6145739;23;20029;-77
2021/05/27 03:20:58;;;;;;;21.50;5.75;;;10.00;99.90;;;;;;6150223;23;20022;-77
2021/05/27 03:23:25;;;;;;;17.25;6.18;;;9.90;99.90;;;;;;6144091;23;20032;-77
2021/05/27 03:25:52;;;;;;;16.20;5.97;;;10.00;99.90;;;;;;6146124;23;20021;-77
2021/05/27 03:28:19;;;;;;;14.23;5.57;;;10.00;99.90;;;;;;6169887;23;20048;-78
2021/05/27 03:30:46;;;;;;;16.55;5.65;;;10.00;99.90;;;;;;6147961;23;20081;-80
2021/05/27 03:33:13;;;;;;;16.42;5.82;;;10.00;99.90;;;;;;6147025;23;20025;-77
2021/05/27 03:35:40;;;;;;;21.83;6.72;;;10.00;99.90;;;;;;6145208;23;20161;-80
2021/05/27 03:38:06;;;;;;;21.08;5.60;;;9.90;99.90;;;;;;6143622;23;20037;-78
2021/05/27 03:40:33;;;;;;;19.92;5.13;;;9.90;99.90;;;;;;6149014;23;20848;-77
2021/05/27 03:43:00;;;;;;;18.60;6.10;;;10.00;99.90;;;;;;6170155;23;20420;-77
2021/05/27 03:45:32;;;;;;;16.00;6.40;;;9.90;99.90;;;;;;6148698;23;20442;-78
2021/05/27 03:48:00;;;;;;;20.27;5.63;;;10.00;99.90;;;;;;6147481;23;20505;-78
2021/05/27 03:50:28;;;;;;;14.70;5.78;;;10.00;99.90;;;;;;6148017;23;20039;-77
2021/05/27 03:52:56;;;;;;;21.13;6.15;;;9.90;99.90;;;;;;6150540;23;20104;-77
2021/05/27 03:55:23;;;;;;;13.75;6.68;;;10.00;99.90;;;;;;6147220;23;20017;-77
2021/05/27 03:57:54;;;;;;;22.55;6.95;;;10.00;99.90;;;;;;6144034;23;20022;-78
2021/05/27 04:03:08;;;;;;;15.40;6.05;;;10.00;99.90;;;;;;6148134;23;20641;-77
2021/05/27 04:08:21;;;;;;;18.10;6.80;;;9.90;99.90;;;;;;6146100;23;20021;-78
2021/05/27 04:10:49;;;;;;;20.40;6.47;;;10.00;99.90;;;;;;6146533;23;20033;-78
2021/05/27 04:13:16;;;;;;;19.80;6.32;;;10.00;99.90;;;;;;6145402;23;20021;-77
2021/05/27 04:15:43;;;;;;;21.13;6.80;;;10.00;99.90;;;;;;6145578;23;20057;-78
2021/05/27 04:18:15;;;;;;;14.82;5.60;;;10.00;99.90;;;;;;6145904;23;20069;-78
2021/05/27 04:20:47;;;;;;;14.32;5.15;;;10.00;99.90;;;;;;6147693;23;20017;-77
2021/05/27 04:23:17;;;;;;;17.48;7.47;;;10.00;99.90;;;;;;6169662;23;20077;-77
2021/05/27 04:25:44;;;;;;;26.10;6.25;;;10.00;99.90;;;;;;6145106;23;20021;-77
2021/05/27 04:28:11;;;;;;;20.08;6.68;;;10.00;99.90;;;;;;6146751;23;20032;-79
2021/05/27 04:33:24;;;;;;;18.40;5.78;;;10.00;99.90;;;;;;6145226;23;20021;-78
2021/05/27 04:35:50;;;;;;;13.35;4.93;;;10.10;99.90;;;;;;6146021;23;20045;-78
2021/05/27 04:38:17;;;;;;;13.73;4.93;;;10.00;99.90;;;;;;6143982;23;20022;-78
2021/05/27 04:40:46;;;;;;;14.32;5.20;;;10.00;99.90;;;;;;6145502;23;20032;-79
2021/05/27 04:43:15;;;;;;;13.50;6.40;;;10.00;99.90;;;;;;6148006;23;20025;-77
2021/05/27 04:45:42;;;;;;;17.40;6.57;;;10.00;99.90;;;;;;6147383;23;20025;-77
2021/05/27 04:48:10;;;;;;;13.05;5.40;;;10.00;99.90;;;;;;6148901;23;20438;-79
2021/05/27 04:50:38;;;;;;;12.43;5.20;;;10.10;99.90;;;;;;6147374;23;20101;-77
2021/05/27 04:53:06;;;;;;;14.68;5.93;;;10.00;99.90;;;;;;6149127;23;20049;-77
2021/05/27 04:55:33;;;;;;;16.77;5.72;;;10.00;99.90;;;;;;6171203;23;20505;-79
2021/05/27 04:58:01;;;;;;;19.73;5.28;;;10.00;99.90;;;;;;6147175;23;20048;-76
2021/05/27 05:00:28;;;;;;;12.68;5.32;;;10.00;99.90;;;;;;6139141;23;20024;-79
2021/05/27 05:02:57;;;;;;;18.17;5.35;;;10.00;99.90;;;;;;6166507;23;20032;-79
2021/05/27 05:05:25;;;;;;;15.63;5.05;;;10.10;99.90;;;;;;6145661;23;20021;-77
2021/05/27 05:07:52;;;;;;;12.30;5.10;;;10.10;99.90;;;;;;6143310;23;20073;-77
2021/05/27 05:10:20;;;;;;;18.15;5.50;;;10.10;99.90;;;;;;6145587;23;20018;-77
2021/05/27 05:12:49;;;;;;;12.38;5.53;;;10.10;99.90;;;;;;6171322;23;20021;-76
2021/05/27 05:15:22;;;;;;;17.60;5.55;;;10.10;99.90;;;;;;6146163;23;20109;-77
2021/05/27 05:17:52;;;;;;;15.77;5.13;;;10.10;99.90;;;;;;6132112;23;20032;-77
2021/05/27 05:20:21;;;;;;;16.17;4.95;;;10.20;99.90;;;;;;6169896;23;20025;-78
2021/05/27 05:22:48;;;;;;;14.85;5.35;;;10.20;99.90;;;;;;6148732;23;20457;-78
2021/05/27 05:25:16;;;;;;;15.15;5.10;;;10.20;99.90;;;;;;6144655;23;20794;-78
2021/05/27 05:27:43;;;;;;;15.48;4.80;;;10.20;99.90;;;;;;6172578;23;20010;-78
2021/05/27 05:30:10;;;;;;;13.23;4.32;;;10.30;99.90;;;;;;6149147;23;20040;-78
2021/05/27 05:32:37;;;;;;;12.23;5.30;;;10.30;99.90;;;;;;6149099;23;20047;-78
2021/05/27 05:35:06;;;;;;;13.98;4.72;;;10.30;99.90;;;;;;6149347;23;20456;-78
2021/05/27 05:37:33;;;;;;;17.33;4.72;;;10.20;99.90;;;;;;6149793;23;20037;-78
2021/05/27 05:40:00;;;;;;;10.30;4.13;;;10.30;99.90;;;;;;6151330;23;20032;-77
2021/05/27 05:42:27;;;;;;;10.52;4.63;;;10.30;99.90;;;;;;6146091;23;20025;-77
2021/05/27 05:44:54;;;;;;;9.68;3.60;;;10.30;99.90;;;;;;6151216;23;20022;-78
2021/05/27 05:47:20;;;;;;;11.05;4.03;;;10.30;99.90;;;;;;6148542;23;20052;-77
2021/05/27 05:49:47;;;;;;;12.75;4.32;;;10.30;99.90;;;;;;6146666;23;20081;-78
2021/05/27 05:52:14;;;;;;;14.27;5.00;;;10.30;99.90;;;;;;6171809;23;20031;-78
2021/05/27 05:54:41;;;;;;;18.20;4.78;;;10.30;99.90;;;;;;6149455;23;20014;-78
2021/05/27 05:57:08;;;;;;;16.67;4.47;;;10.40;99.90;;;;;;6170863;23;20077;-77
2021/05/27 05:59:34;;;;;;;10.80;4.82;;;10.40;99.90;;;;;;6148322;23;20032;-78
2021/05/27 06:02:04;;;;;;;14.13;4.90;;;10.40;99.90;;;;;;6150123;23;20065;-78
2021/05/27 06:04:31;;;;;;;12.80;4.65;;;10.40;99.90;;;;;;6172264;23;20041;-77
2021/05/27 06:07:02;;;;;;;16.35;4.45;;;10.40;99.90;;;;;;6149441;23;20454;-78
2021/05/27 06:09:29;;;;;;;19.92;5.45;;;10.40;99.90;;;;;;6148452;23;20099;-77
2021/05/27 06:11:56;;;;;;;9.32;3.78;;;10.50;99.90;;;;;;6145390;23;20021;-78
2021/05/27 06:14:23;;;;;;;9.70;3.83;;;10.40;99.90;;;;;;6146219;23;20028;-78
2021/05/27 06:16:49;;;;;;;13.32;4.32;;;10.40;99.90;;;;;;6147905;23;20026;-78
2021/05/27 06:19:16;;;;;;;14.82;4.05;;;10.40;99.90;;;;;;6149731;23;20105;-78
2021/05/27 06:21:43;;;;;;;10.52;4.25;;;10.40;99.90;;;;;;6170480;23;20025;-77
2021/05/27 06:24:10;;;;;;;12.48;4.53;;;10.40;99.90;;;;;;6148949;23;20036;-78
2021/05/27 06:26:37;;;;;;;12.38;4.72;;;10.50;99.90;;;;;;6140738;23;20074;-78
2021/05/27 06:29:04;;;;;;;11.30;5.00;;;10.40;99.90;;;;;;6146871;23;20152;-77
2021/05/27 06:31:31;;;;;;;12.85;4.20;;;10.40;99.90;;;;;;6133643;23;20034;-78
2021/05/27 06:33:58;;;;;;;10.73;4.15;;;10.40;99.90;;;;;;6149571;23;20096;-78
2021/05/27 06:36:26;;;;;;;13.48;4.05;;;10.40;99.90;;;;;;6141905;23;20018;-78
2021/05/27 06:38:59;;;;;;;13.32;4.13;;;10.40;99.90;;;;;;6145246;23;20056;-77
2021/05/27 06:41:26;;;;;;;16.50;4.35;;;10.40;99.90;;;;;;6147639;23;20113;-77
2021/05/27 06:43:53;;;;;;;10.77;3.85;;;10.30;99.90;;;;;;6144225;23;20021;-78
2021/05/27 06:46:21;;;;;;;14.52;4.35;;;10.40;99.90;;;;;;6138785;23;20025;-78
2021/05/27 06:48:47;;;;;;;14.95;4.45;;;10.40;99.90;;;;;;6139355;23;20494;-77
2021/05/27 06:51:14;;;;;;;17.38;5.28;;;10.40;99.90;;;;;;6140486;23;20464;-78
2021/05/27 06:53:41;;;;;;;20.02;5.07;;;10.30;99.90;;;;;;6147062;23;20530;-78
2021/05/27 06:56:08;;;;;;;16.58;5.38;;;10.30;99.90;;;;;;6147555;23;20024;-78
2021/05/27 06:58:35;;;;;;;13.57;4.93;;;10.30;99.90;;;;;;6133787;23;20376;-78
2021/05/27 07:01:02;;;;;;;9.88;4.40;;;10.30;99.90;;;;;;6134485;23;20136;-78
2021/05/27 07:03:29;;;;;;;13.77;5.03;;;10.30;99.90;;;;;;6154831;23;20056;-78
2021/05/27 07:05:57;;;;;;;17.38;4.82;;;10.30;99.90;;;;;;6132637;23;20024;-78
2021/05/27 07:08:24;;;;;;;13.52;4.32;;;10.20;99.90;;;;;;6146704;23;20092;-78
2021/05/27 07:10:51;;;;;;;19.73;5.30;;;10.20;99.90;;;;;;6147825;23;20129;-78
2021/05/27 07:13:17;;;;;;;13.23;5.28;;;10.30;99.90;;;;;;6146331;23;20092;-78
2021/05/27 07:15:44;;;;;;;18.45;5.80;;;10.30;99.90;;;;;;6148150;23;20073;-78
2021/05/27 07:18:11;;;;;;;18.70;5.63;;;10.30;99.90;;;;;;6134963;23;20055;-78
2021/05/27 07:20:39;;;;;;;17.58;6.13;;;10.30;99.90;;;;;;6171700;23;20446;-78
2021/05/27 07:23:06;;;;;;;22.55;6.07;;;10.30;99.90;;;;;;6149210;23;20017;-79
2021/05/27 07:25:33;;;;;;;22.92;6.72;;;10.30;99.90;;;;;;6149716;23;20029;-78
2021/05/27 07:28:00;;;;;;;22.52;6.70;;;10.30;99.90;;;;;;6170624;23;20022;-78
2021/05/27 07:30:28;;;;;;;25.85;6.25;;;10.30;99.90;;;;;;6148020;23;21424;-78
2021/05/27 07:32:56;;;;;;;21.85;5.80;;;10.40;99.90;;;;;;6148257;23;20017;-78
2021/05/27 07:35:26;;;;;;;22.55;6.38;;;10.40;99.90;;;;;;6147400;23;20092;-78
2021/05/27 07:37:54;;;;;;;21.00;6.68;;;10.40;99.90;;;;;;6148080;23;20021;-78
2021/05/27 07:40:21;;;;;;;24.92;6.45;;;10.40;99.90;;;;;;6163324;23;20029;-78
2021/05/27 07:42:48;;;;;;;25.02;6.72;;;10.50;99.90;;;;;;6147265;23;20081;-79
2021/05/27 07:45:16;;;;;;;26.00;6.40;;;10.60;99.90;;;;;;6141664;23;20053;-78
2021/05/27 07:47:46;;;;;;;30.73;7.63;;;10.60;99.90;;;;;;6146040;23;20021;-79
2021/05/27 07:50:14;;;;;;;20.50;6.38;;;10.70;99.90;;;;;;6171488;23;20048;-78
2021/05/27 07:52:40;;;;;;;27.15;7.63;;;10.80;99.90;;;;;;6147789;23;25713;-78
2021/05/27 07:55:09;;;;;;;23.27;7.10;;;10.80;99.90;;;;;;6145966;23;20327;-78
2021/05/27 07:57:36;;;;;;;20.60;6.85;;;10.90;99.90;;;;;;6146357;23;20101;-78
2021/05/27 08:00:08;;;;;;;27.08;8.40;;;11.00;99.90;;;;;;6146987;23;20025;-78
2021/05/27 08:02:34;;;;;;;30.98;7.35;;;11.10;99.90;;;;;;6148500;23;20017;-78
2021/05/27 08:05:02;;;;;;;27.45;6.90;;;11.20;99.90;;;;;;6147946;23;20520;-78
2021/05/27 08:07:29;;;;;;;25.17;7.15;;;11.20;99.90;;;;;;6147287;23;20061;-78
2021/05/27 08:09:55;;;;;;;25.30;6.90;;;11.30;99.90;;;;;;6147846;23;20120;-78
2021/05/27 08:12:22;;;;;;;24.48;6.05;;;11.30;99.90;;;;;;6145873;23;20022;-78
2021/05/27 08:14:49;;;;;;;19.13;6.38;;;11.30;99.90;;;;;;6148337;23;20116;-78
2021/05/27 08:17:15;;;;;;;24.85;6.95;;;11.40;99.90;;;;;;6145452;23;20028;-78
2021/05/27 08:19:42;;;;;;;22.85;6.53;;;11.40;99.90;;;;;;6144330;23;20477;-78
2021/05/27 08:22:10;;;;;;;34.17;6.82;;;11.50;99.90;;;;;;6169010;23;20033;-78
2021/05/27 08:24:37;;;;;;;29.20;7.13;;;11.50;99.90;;;;;;6135352;23;20031;-77
2021/05/27 08:27:04;;;;;;;21.90;6.13;;;11.60;99.90;;;;;;6143941;23;20025;-77
2021/05/27 08:29:30;;;;;;;28.30;6.80;;;11.60;99.90;;;;;;6144788;23;20017;-78
2021/05/27 08:31:57;;;;;;;16.83;5.93;;;11.60;99.90;;;;;;6147013;23;20028;-78
2021/05/27 08:34:24;;;;;;;28.50;7.00;;;11.60;99.90;;;;;;6143775;23;20081;-79
2021/05/27 08:36:51;;;;;;;17.60;5.65;;;11.80;99.90;;;;;;6138721;23;20545;-79
2021/05/27 08:39:18;;;;;;;23.95;7.20;;;11.80;99.90;;;;;;6132512;23;20113;-77
2021/05/27 08:41:45;;;;;;;21.75;6.15;;;11.90;99.90;;;;;;6128037;23;20105;-77
2021/05/27 08:44:12;;;;;;;21.52;6.93;;;11.90;99.90;;;;;;6143524;23;20020;-77
2021/05/27 08:46:41;;;;;;;21.60;6.05;;;12.00;99.90;;;;;;6145504;23;20045;-78
2021/05/27 08:49:08;;;;;;;17.95;5.20;;;12.10;99.90;;;;;;6144210;23;21832;-77
2021/05/27 08:51:35;;;;;;;17.40;5.05;;;12.00;99.90;;;;;;6169119;23;20095;-78
2021/05/27 08:54:04;;;;;;;22.35;6.72;;;11.90;99.90;;;;;;6145905;23;20025;-77
2021/05/27 08:56:32;;;;;;;16.58;5.22;;;11.80;99.90;;;;;;6168984;23;20032;-77
2021/05/27 08:58:58;;;;;;;17.10;5.28;;;11.70;99.90;;;;;;6145775;23;20032;-77
2021/05/27 09:01:26;;;;;;;23.95;5.65;;;11.60;99.90;;;;;;6148050;23;20076;-77
2021/05/27 09:03:56;;;;;;;20.55;5.10;;;11.60;99.90;;;;;;6134528;23;20104;-78
2021/05/27 09:06:23;;;;;;;23.95;5.93;;;11.60;99.90;;;;;;6143296;23;20026;-78
2021/05/27 09:09:11;;;;;;;16.25;5.25;;;11.50;99.90;;;;;;6162261;23;20045;-80
2021/05/27 09:11:38;;;;;;;13.65;4.40;;;11.50;99.90;;;;;;6145467;23;20017;-78
2021/05/27 09:14:06;;;;;;;15.27;4.97;;;11.50;99.90;;;;;;6148431;23;20080;-78
2021/05/27 09:16:33;;;;;;;21.88;5.45;;;11.40;99.90;;;;;;6148365;23;20025;-80
2021/05/27 09:19:19;;;;;;;19.20;4.95;;;11.40;99.90;;;;;;5126150;27;20389;-78
2021/05/27 09:21:45;;;;;;;17.23;5.70;;;11.30;99.90;;;;;;5094488;27;20107;-78
2021/05/27 09:24:15;;;;;;;21.75;6.60;;;11.30;99.90;;;;;;5099162;27;20025;-77
2021/05/27 09:26:50;;;;;;;24.58;6.68;;;11.20;99.90;;;;;;5091690;27;20491;-77
2021/05/27 09:29:17;;;;;;;24.20;6.93;;;11.30;99.90;;;;;;5091755;27;20051;-77
2021/05/27 09:32:02;;;;;;;27.38;7.00;;;11.30;99.90;;;;;;5089032;27;20046;-78
2021/05/27 09:34:51;;;;;;;28.00;7.10;;;11.40;99.90;;;;;;5113089;27;20044;-78
2021/05/27 09:37:19;;;;;;;19.13;6.20;;;11.50;99.90;;;;;;5089465;28;20067;-79
2021/05/27 09:39:47;;;;;;;25.60;8.07;;;11.50;99.90;;;;;;5108370;27;20058;-79
2021/05/27 09:42:14;;;;;;;20.88;6.50;;;11.60;99.90;;;;;;5090681;28;20048;-78
2021/05/27 09:44:41;;;;;;;24.05;6.30;;;11.60;99.90;;;;;;5055374;28;20057;-79
2021/05/27 09:47:08;;;;;;;28.80;7.60;;;11.50;99.90;;;;;;5048280;28;20073;-78
2021/05/27 09:49:35;;;;;;;20.45;6.63;;;11.50;99.90;;;;;;5053863;28;20048;-77
2021/05/27 09:52:17;;;;;;;19.17;6.60;;;11.50;99.90;;;;;;5059038;28;20102;-78
2021/05/27 09:54:52;;;;;;;22.73;6.97;;;11.60;99.90;;;;;;5056302;28;20072;-79
2021/05/27 09:57:21;;;;;;;24.23;6.68;;;11.70;99.90;;;;;;5056789;28;20068;-79
2021/05/27 09:59:48;;;;;;;20.42;5.78;;;11.90;99.90;;;;;;5054211;28;20049;-78
2021/05/27 10:02:17;;;;;;;20.42;5.00;;;12.10;99.90;;;;;;5053274;28;20053;-79
2021/05/27 10:04:57;;;;;;;19.58;4.82;;;12.30;99.90;;;;;;5054925;28;20132;-78
2021/05/27 10:07:47;;;;;;;20.13;5.18;;;12.60;99.90;;;;;;5063106;28;20132;-78
2021/05/27 10:10:34;;;;;;;19.05;4.85;;;12.90;99.90;;;;;;5061517;28;20048;-78
2021/05/27 10:13:00;;;;;;;17.52;5.15;;;13.30;99.90;;;;;;5044114;28;20056;-79
2021/05/27 10:15:27;;;;;;;18.58;3.22;;;13.60;99.90;;;;;;5053839;28;20049;-79
2021/05/27 10:17:57;;;;;;;8.50;2.30;;;13.80;99.90;;;;;;5054925;28;20116;-79
2021/05/27 10:20:25;;;;;;;11.32;2.15;;;13.70;99.90;;;;;;5048822;28;20072;-76
2021/05/27 10:22:56;;;;;;;13.40;2.00;;;13.60;99.90;;;;;;5047941;28;20053;-76
2021/05/27 10:25:27;;;;;;;14.32;1.88;;;13.30;99.90;;;;;;5053063;28;20076;-77
2021/05/27 10:27:56;;;;;;;16.00;2.83;;;13.20;99.90;;;;;;5049869;28;20508;-79
2021/05/27 10:30:24;;;;;;;7.70;2.60;;;13.00;99.90;;;;;;5029747;28;20049;-77
2021/05/27 10:32:58;;;;;;;8.20;1.88;;;12.90;99.90;;;;;;5038984;28;20159;-77
2021/05/27 10:35:44;;;;;;;12.25;2.60;;;12.80;99.90;;;;;;5040205;28;20049;-78
2021/05/27 10:38:11;;;;;;;6.65;0.80;;;12.70;99.90;;;;;;5049244;28;20054;-77
2021/05/27 10:40:40;;;;;;;2.47;0.82;;;12.70;99.90;;;;;;5039332;28;20053;-77
2021/05/27 10:43:12;;;;;;;4.88;0.80;;;12.90;99.90;;;;;;5043684;28;20148;-77
2021/05/27 10:45:57;;;;;;;1.93;0.93;;;13.20;99.90;;;;;;5068982;28;20055;-77
2021/05/27 10:48:25;;;;;;;3.42;1.33;;;13.40;99.90;;;;;;5040264;28;20051;-77
2021/05/27 10:53:33;;;;;;;0.70;0.68;;;13.90;99.90;;;;;;5040676;28;20076;-77
2021/05/27 10:56:02;;;;;;;6.53;0.80;;;14.20;99.90;;;;;;5054439;28;20050;-77
2021/05/27 10:58:52;;;;;;;1.17;0.73;;;14.50;99.90;;;;;;5046368;28;20575;-78
2021/05/27 11:01:28;;;;;;;2.45;0.90;;;14.80;99.90;;;;;;5070187;28;20484;-77
2021/05/27 11:04:00;;;;;;;2.42;0.80;;;15.00;99.90;;;;;;5068637;28;20065;-78
2021/05/27 11:06:40;;;;;;;2.92;0.80;;;15.10;99.90;;;;;;5031361;28;20665;-77
2021/05/27 11:11:42;;;;;;;1.95;0.85;;;15.20;99.90;;;;;;5038519;28;20508;-77
2021/05/27 11:14:35;;;;;;;3.55;1.02;;;15.30;99.90;;;;;;5037692;28;20061;-78
2021/05/27 11:17:21;;;;;;;8.90;2.00;;;15.40;99.90;;;;;;5041985;28;20047;-78
2021/05/27 11:22:51;;;;;;;7.95;1.60;;;15.70;99.90;;;;;;5038465;28;20049;-78
2021/05/27 11:25:26;;;;;;;8.60;2.40;;;15.90;99.90;;;;;;5043559;28;20045;-78
2021/05/27 11:28:03;;;;;;;15.23;2.45;;;16.10;99.90;;;;;;5040683;28;20060;-79
2021/05/27 11:30:41;;;;;;;13.25;2.35;;;16.20;99.90;;;;;;5071268;28;20076;-77
2021/05/27 11:33:14;;;;;;;13.50;2.17;;;16.10;99.90;;;;;;5054883;28;20063;-78
2021/05/27 11:35:45;;;;;;;7.40;1.50;;;16.00;99.90;;;;;;5045768;28;20057;-77
2021/05/27 11:38:17;;;;;;;14.30;2.90;;;15.90;99.90;;;;;;5034122;28;20052;-77
2021/05/27 11:41:03;;;;;;;13.10;1.77;;;15.80;99.90;;;;;;5055881;28;20128;-77
2021/05/27 11:43:38;;;;;;;8.82;1.60;;;15.70;99.90;;;;;;5063420;28;20050;-79
2021/05/27 11:46:15;;;;;;;11.70;2.42;;;15.60;99.90;;;;;;5041560;28;20057;-78
2021/05/27 11:51:22;;;;;;;11.55;2.10;;;15.50;99.90;;;;;;5041380;28;20497;-77
2021/05/27 11:53:59;;;;;;;8.82;1.73;;;15.40;99.90;;;;;;5028635;28;20511;-77
2021/05/27 11:56:37;;;;;;;12.88;2.08;;;15.30;99.90;;;;;;5032180;28;20053;-78
2021/05/27 11:59:17;;;;;;;6.40;1.60;;;15.40;99.90;;;;;;5070657;28;20053;-77
2021/05/27 12:01:48;;;;;;;12.73;1.85;;;15.70;99.90;;;;;;5035923;28;20045;-78
2021/05/27 12:04:18;;;;;;;8.95;2.55;;;16.10;99.90;;;;;;5038455;28;20160;-78
2021/05/27 12:06:56;;;;;;;6.82;1.30;;;16.70;99.90;;;;;;5037023;28;20536;-78
2021/05/27 12:09:35;;;;;;;4.50;1.17;;;17.30;99.90;;;;;;5037005;28;20060;-78
2021/05/27 12:12:24;;;;;;;10.30;2.17;;;18.30;99.90;;;;;;5051481;28;20049;-78
2021/05/27 12:15:09;;;;;;;10.20;1.67;;;18.60;99.90;;;;;;5071369;28;20055;-78
2021/05/27 12:17:37;;;;;;;;;;;18.50;99.90;;;;;;5035672;28;20056;-79
2021/05/27 12:20:08;;;;;;;10.98;1.65;;;18.20;99.90;;;;;;5050800;28;20004;-78
2021/05/27 12:23:08;;;;;;;8.95;2.05;;;18.30;99.90;;;;;;5053002;28;20048;-78
2021/05/27 12:25:37;;;;;;;14.38;2.10;;;18.30;99.90;;;;;;5042816;28;20055;-78
2021/05/27 12:28:10;;;;;;;12.70;2.00;;;18.50;99.90;;;;;;5040816;28;20068;-79
2021/05/27 12:30:39;;;;;;;6.55;1.75;;;18.80;99.90;;;;;;5051654;28;20111;-79
2021/05/27 12:33:09;;;;;;;13.65;1.88;;;18.80;99.90;;;;;;5066854;28;20053;-78
2021/05/27 12:35:40;;;;;;;10.55;1.67;;;18.50;99.90;;;;;;5036954;28;20057;-78
2021/05/27 12:38:22;;;;;;;9.18;2.35;;;18.10;99.90;;;;;;5034383;28;20057;-78
2021/05/27 12:40:55;;;;;;;8.85;1.60;;;17.60;99.90;;;;;;5050564;28;20507;-78
2021/05/27 12:43:37;;;;;;;11.52;2.25;;;17.20;99.90;;;;;;5033160;28;20049;-78
2021/05/27 12:46:06;;;;;;;12.23;2.00;;;16.70;99.90;;;;;;5033831;28;20052;-78
2021/05/27 12:48:45;;;;;;;9.65;2.60;;;16.40;99.90;;;;;;5067483;28;20055;-78
2021/05/27 12:51:12;;;;;;;11.10;3.15;;;16.20;99.90;;;;;;5035323;28;20502;-79
2021/05/27 12:53:48;;;;;;;12.93;1.70;;;16.20;99.90;;;;;;5035431;28;20155;-78
2021/05/27 12:56:22;;;;;;;15.60;2.70;;;16.10;99.90;;;;;;5039595;28;20496;-78
2021/05/27 12:59:11;;;;;;;7.78;2.17;;;16.20;99.90;;;;;;5037716;28;20045;-79
2021/05/27 13:01:46;;;;;;;10.35;1.65;;;16.30;99.90;;;;;;5062783;28;20110;-78
2021/05/27 13:04:19;;;;;;;7.90;1.75;;;16.60;99.90;;;;;;5050819;28;20048;-79
2021/05/27 13:07:12;;;;;;;7.53;1.95;;;16.50;99.90;;;;;;5037034;28;20049;-79
2021/05/27 13:09:54;;;;;;;11.98;1.58;;;16.30;99.90;;;;;;5039280;28;20057;-78
2021/05/27 13:12:22;;;;;;;8.75;2.28;;;16.40;99.90;;;;;;5036181;28;20056;-79